Time;durP1;ratioP1;P1;durP2;ratioP2;P2;SDS_P1;SDS_P2;PMS_P1;PMS_P2;Temp;Humidity;BMP_temperature;BMP_pressure;BME280_temperature;BME280_humidity;BME280_pressure;Samples;Min_cycle;Max_cycle;Signal;HPM_P1;HPM_P2
2023/03/16 00:01:46;;;;;;;12.73;7.88;;;;;;;3.54;70.27;101163.47;4124408;28;20681;-69
2023/03/16 00:03:49;;;;;;;11.27;7.35;;;;;;;3.51;70.49;101166.75;4138333;28;20056;-69
2023/03/16 00:05:54;;;;;;;12.85;7.50;;;;;;;3.51;70.58;101163.31;4134683;28;20034;-69
2023/03/16 00:07:57;;;;;;;10.80;7.38;;;;;;;3.48;70.67;101164.91;4131694;28;20164;-69
2023/03/16 00:10:00;;;;;;;14.88;8.20;;;;;;;3.45;70.35;101169.88;4136428;28;20404;-69
2023/03/16 00:12:03;;;;;;;12.20;7.53;;;;;;;3.42;71.00;101169.72;4118231;28;20093;-69
2023/03/16 00:14:07;;;;;;;11.98;7.78;;;;;;;3.39;70.58;101166.97;4133851;28;20038;-69
2023/03/16 00:16:15;;;;;;;12.00;8.40;;;;;;;3.39;70.71;101169.53;4132347;28;20068;-69
2023/03/16 00:18:19;;;;;;;13.43;7.97;;;;;;;3.38;70.73;101167.78;4138112;28;20126;-69
2023/03/16 00:20:22;;;;;;;12.85;8.25;;;;;;;3.39;70.53;101169.53;4151345;28;20442;-69
2023/03/16 00:22:29;;;;;;;11.77;8.25;;;;;;;3.40;70.58;101162.72;4148157;28;20129;-69
2023/03/16 00:24:32;;;;;;;12.40;7.38;;;;;;;3.37;70.67;101171.13;4128915;28;20050;-69
2023/03/16 00:26:35;;;;;;;10.15;7.13;;;;;;;3.36;70.30;101166.81;4137828;28;20069;-69
2023/03/16 00:28:37;;;;;;;12.52;8.75;;;;;;;3.33;70.35;101174.34;4144114;28;20038;-70
2023/03/16 00:30:46;;;;;;;10.70;7.68;;;;;;;3.30;70.82;101169.03;4123321;28;20038;-69
2023/03/16 00:32:52;;;;;;;10.75;7.65;;;;;;;3.26;71.44;101167.13;4141584;28;20048;-69
2023/03/16 00:34:56;;;;;;;10.38;7.85;;;;;;;3.22;70.96;101172.88;4120498;28;20035;-69
2023/03/16 00:36:58;;;;;;;13.57;8.55;;;;;;;3.20;71.19;101177.94;4134233;28;20064;-70
2023/03/16 00:39:04;;;;;;;10.18;7.40;;;;;;;3.17;71.00;101182.00;4116896;28;20049;-69
2023/03/16 00:41:08;;;;;;;9.27;6.85;;;;;;;3.11;71.43;101173.16;4156692;28;20053;-69
2023/03/16 00:43:11;;;;;;;9.65;6.63;;;;;;;3.13;71.02;101174.13;4140567;28;20038;-69
2023/03/16 00:45:13;;;;;;;11.80;8.23;;;;;;;3.14;71.20;101167.31;4135388;28;20034;-70
2023/03/16 00:47:16;;;;;;;11.85;7.57;;;;;;;3.15;71.44;101163.94;4136484;28;20476;-70
2023/03/16 00:49:21;;;;;;;10.18;6.90;;;;;;;3.18;71.40;101160.66;4123839;28;20129;-70
2023/03/16 00:51:24;;;;;;;10.30;7.00;;;;;;;3.19;71.07;101162.44;4137915;28;20042;-70
2023/03/16 00:53:27;;;;;;;11.27;7.28;;;;;;;3.14;71.00;101157.91;4120154;28;20096;-70
2023/03/16 00:55:31;;;;;;;11.82;7.07;;;;;;;3.12;70.80;101166.34;4151909;28;20037;-70
2023/03/16 00:57:34;;;;;;;11.35;7.90;;;;;;;3.02;71.13;101157.22;4119083;28;20030;-70
2023/03/16 00:59:38;;;;;;;13.25;9.13;;;;;;;3.02;72.10;101159.78;4154263;28;20034;-70
2023/03/16 01:01:41;;;;;;;12.77;8.90;;;;;;;3.01;71.97;101152.91;4106611;28;20047;-70
2023/03/16 01:03:44;;;;;;;12.18;8.13;;;;;;;3.04;71.90;101155.63;4146309;28;20038;-69
2023/03/16 01:05:47;;;;;;;11.10;7.60;;;;;;;3.05;71.42;101151.38;4116678;28;20121;-70
2023/03/16 01:07:51;;;;;;;12.20;8.35;;;;;;;3.05;71.25;101149.72;4123437;28;20512;-70
2023/03/16 01:09:54;;;;;;;13.68;8.55;;;;;;;3.07;71.27;101148.09;4157233;28;20041;-70
2023/03/16 01:11:58;;;;;;;11.75;8.35;;;;;;;3.09;71.16;101146.47;4139004;28;20042;-70
2023/03/16 01:14:02;;;;;;;12.85;8.25;;;;;;;3.06;70.75;101143.75;4117847;28;20430;-69
2023/03/16 01:16:06;;;;;;;11.30;7.75;;;;;;;3.04;71.23;101136.75;4148812;28;20313;-70
2023/03/16 01:18:09;;;;;;;14.57;9.18;;;;;;;3.04;71.40;101135.09;4139999;28;20432;-70
2023/03/16 01:20:13;;;;;;;14.05;8.43;;;;;;;3.02;70.94;101128.97;4127604;28;20039;-70
2023/03/16 01:22:17;;;;;;;12.35;8.85;;;;;;;2.97;71.71;101133.84;4141877;28;20073;-69
2023/03/16 01:24:19;;;;;;;12.65;8.95;;;;;;;2.99;71.78;101133.06;4155105;28;20116;-70
2023/03/16 01:26:24;;;;;;;12.93;7.50;;;;;;;2.96;71.18;101126.06;4101702;28;20052;-70
2023/03/16 01:28:30;;;;;;;14.32;9.30;;;;;;;2.92;72.06;101140.44;4123513;28;20548;-70
2023/03/16 01:30:34;;;;;;;12.77;8.30;;;;;;;2.89;71.90;101149.63;4112607;28;20099;-70
2023/03/16 01:32:38;;;;;;;11.57;8.50;;;;;;;2.89;71.87;101153.09;4143495;28;20050;-70
2023/03/16 01:34:42;;;;;;;14.75;8.45;;;;;;;2.88;71.90;101150.44;4140171;28;20038;-70
2023/03/16 01:36:48;;;;;;;14.50;9.80;;;;;;;2.89;71.60;101140.25;4132908;28;20074;-70
2023/03/16 01:38:59;;;;;;;13.93;9.82;;;;;;;2.88;71.81;101135.03;4134587;28;20080;-70
2023/03/16 01:41:06;;;;;;;15.68;9.60;;;;;;;2.86;71.89;101136.63;4119789;28;20084;-70
2023/03/16 01:43:11;;;;;;;13.75;9.38;;;;;;;2.88;72.51;101137.59;4126108;28;20034;-70
2023/03/16 01:46:07;;;;;;;13.52;9.48;;;;;;;2.88;72.14;101127.34;4127854;28;20049;-70
2023/03/16 01:48:16;;;;;;;13.63;9.18;;;;;;;2.79;72.06;101133.72;4147822;28;20084;-70
2023/03/16 01:50:19;;;;;;;13.88;9.25;;;;;;;2.82;71.76;101121.84;4126467;28;20517;-70
2023/03/16 01:52:25;;;;;;;12.10;8.68;;;;;;;2.84;71.62;101133.09;4126265;28;20176;-69
2023/03/16 01:54:32;;;;;;;13.15;9.20;;;;;;;2.86;71.87;101134.06;4112650;28;20039;-70
2023/03/16 01:56:40;;;;;;;12.38;8.82;;;;;;;2.88;71.81;101127.34;4140651;28;20405;-70
2023/03/16 01:58:44;;;;;;;12.25;9.10;;;;;;;2.88;71.68;101129.91;4139947;28;20034;-70
2023/03/16 02:00:47;;;;;;;15.07;10.32;;;;;;;2.85;72.14;101127.13;4136574;28;20069;-70
2023/03/16 02:03:04;;;;;;;14.50;10.13;;;;;;;2.80;71.75;101119.19;4118757;28;20111;-70
2023/03/16 02:05:26;;;;;;;14.60;10.60;;;;;;;2.76;72.41;101119.78;4113832;28;20045;-70
2023/03/16 02:07:34;;;;;;;14.98;10.20;;;;;;;2.71;72.75;101118.69;4125488;28;20039;-69
2023/03/16 02:09:42;;;;;;;16.25;11.07;;;;;;;2.69;72.30;101120.28;4118721;28;20050;-70
2023/03/16 02:11:47;;;;;;;14.50;9.80;;;;;;;2.68;72.15;101114.25;4114262;28;20057;-70
2023/03/16 02:13:51;;;;;;;16.38;10.23;;;;;;;2.69;72.04;101110.88;4149870;28;20401;-70
2023/03/16 02:15:55;;;;;;;;;;;;;;;2.57;72.34;101107.59;4115581;28;20122;-70
2023/03/16 02:17:59;;;;;;;16.98;11.45;;;;;;;2.59;72.26;101103.47;4108851;28;19922;-70
2023/03/16 02:20:13;;;;;;;17.10;11.55;;;;;;;2.63;72.10;101105.41;4109485;28;20050;-69
2023/03/16 02:22:16;;;;;;;14.63;10.52;;;;;;;2.58;72.56;101091.41;4136317;28;20438;-70
2023/03/16 02:24:19;;;;;;;16.70;10.68;;;;;;;2.58;72.27;101101.69;4168244;22;20045;-71
2023/03/16 02:26:30;;;;;;;18.17;11.48;;;;;;;2.62;71.75;101093.38;4161816;28;20050;-71
2023/03/16 02:28:43;;;;;;;15.50;11.50;;;;;;;2.62;72.90;101091.66;4155644;28;20457;-71
2023/03/16 02:30:48;;;;;;;17.80;10.80;;;;;;;2.63;72.12;101090.00;4155972;28;20333;-71
2023/03/16 02:32:53;;;;;;;15.10;11.13;;;;;;;2.62;72.46;101085.66;4144674;28;20041;-71
2023/03/16 02:34:58;;;;;;;14.57;10.95;;;;;;;2.58;72.25;101086.28;4135479;28;20053;-71
2023/03/16 02:37:02;;;;;;;18.33;11.20;;;;;;;2.59;72.24;101080.38;4164498;28;20041;-71
2023/03/16 02:39:05;;;;;;;18.88;11.93;;;;;;;2.54;72.82;101077.53;4144599;28;20041;-71
2023/03/16 02:41:18;;;;;;;15.88;11.80;;;;;;;2.59;72.88;101085.50;4149505;28;20049;-71
2023/03/16 02:43:32;;;;;;;14.85;11.35;;;;;;;2.61;72.31;101078.75;4156389;28;20039;-71
2023/03/16 02:45:55;;;;;;;13.45;10.13;;;;;;;2.58;72.09;101082.03;4151314;28;20113;-71
2023/03/16 02:48:05;;;;;;;13.82;10.75;;;;;;;2.55;72.24;101083.53;4133772;28;20088;-71
2023/03/16 02:50:10;;;;;;;16.15;11.48;;;;;;;2.53;72.06;101078.34;4145307;28;20104;-71
2023/03/16 02:52:13;;;;;;;19.65;11.05;;;;;;;2.57;72.75;101074.25;4148948;28;20095;-71
2023/03/16 02:54:15;;;;;;;15.60;11.05;;;;;;;2.57;72.26;101080.28;4143557;28;20041;-71
2023/03/16 02:56:18;;;;;;;15.02;11.30;;;;;;;2.56;71.88;101078.50;4132497;28;20050;-71
2023/03/16 02:58:21;;;;;;;16.60;11.88;;;;;;;2.50;71.95;101077.25;4148111;28;20042;-71
2023/03/16 03:00:24;;;;;;;15.80;11.70;;;;;;;2.47;72.67;101074.50;4153316;28;20107;-71
2023/03/16 03:02:30;;;;;;;18.52;12.00;;;;;;;2.48;72.59;101068.59;4159765;28;20136;-71
2023/03/16 03:04:33;;;;;;;16.55;11.20;;;;;;;2.51;72.49;101064.53;4143377;28;20421;-71
2023/03/16 03:06:36;;;;;;;20.33;11.60;;;;;;;2.54;71.89;101056.09;4142637;28;20097;-71
2023/03/16 03:08:39;;;;;;;17.40;13.00;;;;;;;2.53;72.54;101059.50;4152089;28;20436;-71
2023/03/16 03:10:42;;;;;;;15.55;11.52;;;;;;;2.54;72.64;101048.41;4143142;28;20092;-71
2023/03/16 03:12:48;;;;;;;15.40;10.93;;;;;;;2.49;72.39;101049.84;4146290;28;20045;-71
2023/03/16 03:14:51;;;;;;;19.52;12.18;;;;;;;2.48;72.51;101055.75;4150597;28;20124;-71
2023/03/16 03:16:55;;;;;;;14.77;11.73;;;;;;;2.48;72.83;101053.19;4156412;28;20099;-71
2023/03/16 03:18:59;;;;;;;18.83;12.10;;;;;;;2.47;72.68;101056.56;4142215;28;20040;-71
2023/03/16 03:21:05;;;;;;;14.50;10.45;;;;;;;2.43;72.87;101061.50;4152551;28;20133;-71
2023/03/16 03:23:09;;;;;;;19.33;12.57;;;;;;;2.43;72.41;101050.38;4143788;28;20142;-71
2023/03/16 03:25:13;;;;;;;16.92;11.25;;;;;;;2.46;73.08;101059.94;4146944;28;20049;-71
2023/03/16 03:27:15;;;;;;;14.75;11.25;;;;;;;2.48;72.58;101048.94;4132145;28;20567;-71
2023/03/16 03:29:19;;;;;;;15.77;11.77;;;;;;;2.47;72.53;101043.72;4154259;28;20133;-71
2023/03/16 03:31:22;;;;;;;17.00;11.15;;;;;;;2.51;72.40;101046.56;4143737;28;20041;-71
2023/03/16 03:33:26;;;;;;;13.02;9.35;;;;;;;2.50;72.25;101044.78;4146293;28;20120;-70
2023/03/16 03:35:30;;;;;;;15.63;11.45;;;;;;;2.47;72.84;101036.94;4152971;28;20041;-71
2023/03/16 03:37:34;;;;;;;14.40;10.30;;;;;;;2.40;73.00;101035.69;4144313;28;20041;-71
2023/03/16 03:39:38;;;;;;;13.73;10.15;;;;;;;2.39;72.57;101043.31;4138355;28;20038;-71
2023/03/16 03:41:41;;;;;;;;;;;;;;;2.37;72.75;101034.66;4153093;28;20177;-70
2023/03/16 03:43:46;;;;;;;18.67;11.40;;;;;;;2.40;72.42;101040.81;4150698;28;19944;-71
2023/03/16 03:45:55;;;;;;;17.73;11.50;;;;;;;2.46;72.80;101039.41;4147967;28;20037;-71
2023/03/16 03:47:58;;;;;;;16.40;11.63;;;;;;;2.45;72.21;101033.38;4146846;28;20049;-70
2023/03/16 03:50:01;;;;;;;13.77;10.48;;;;;;;2.46;72.89;101039.41;4148485;28;20052;-71
2023/03/16 03:52:08;;;;;;;14.60;10.50;;;;;;;2.47;72.40;101030.88;4154595;28;20505;-70
2023/03/16 03:54:10;;;;;;;14.55;10.80;;;;;;;2.44;72.39;101029.94;4145279;28;20033;-70
2023/03/16 03:56:21;;;;;;;16.45;11.02;;;;;;;2.44;72.76;101032.50;4144319;28;20074;-71
2023/03/16 03:58:24;;;;;;;16.10;10.05;;;;;;;2.46;72.53;101034.28;4150218;28;20048;-71
2023/03/16 04:00:27;;;;;;;16.63;11.32;;;;;;;2.49;72.21;101031.88;4142051;28;20133;-71
2023/03/16 04:02:30;;;;;;;16.85;11.60;;;;;;;2.48;72.64;101032.66;4159750;28;20034;-71
2023/03/16 04:04:34;;;;;;;16.40;12.05;;;;;;;2.43;72.57;101038.41;4158756;28;20078;-70
2023/03/16 04:06:36;;;;;;;16.58;11.98;;;;;;;2.40;72.87;101035.69;4135290;28;20133;-71
2023/03/16 04:08:41;;;;;;;17.90;12.43;;;;;;;2.39;72.54;101028.78;4150913;28;20045;-71
2023/03/16 04:10:47;;;;;;;13.35;10.75;;;;;;;2.34;73.14;101040.47;4147813;28;20034;-71
2023/03/16 04:12:49;;;;;;;17.58;11.80;;;;;;;2.25;73.38;101039.97;4152449;28;20471;-71
2023/03/16 04:14:53;;;;;;;17.48;12.35;;;;;;;2.15;73.43;101043.69;4154344;28;20045;-71
2023/03/16 04:16:59;;;;;;;17.15;11.63;;;;;;;2.14;73.57;101048.72;4158118;28;20567;-71
2023/03/16 04:19:03;;;;;;;19.63;13.55;;;;;;;2.16;73.83;101053.16;4157027;28;20536;-70
2023/03/16 04:21:07;;;;;;;19.52;13.43;;;;;;;2.20;74.18;101046.50;4145126;28;20037;-70
2023/03/16 04:23:10;;;;;;;22.00;15.27;;;;;;;2.20;73.90;101046.50;4130061;28;20442;-71
2023/03/16 04:25:17;;;;;;;16.65;12.43;;;;;;;2.19;73.62;101043.06;4152892;28;20037;-71
2023/03/16 04:27:21;;;;;;;19.38;13.38;;;;;;;2.23;73.74;101054.38;4133152;28;20050;-70
2023/03/16 04:29:24;;;;;;;16.15;11.95;;;;;;;2.26;73.23;101055.44;4154880;28;20045;-71
2023/03/16 04:31:27;;;;;;;17.98;12.40;;;;;;;2.27;73.42;101054.63;4152865;28;20033;-71
2023/03/16 04:33:31;;;;;;;21.92;12.40;;;;;;;2.33;72.98;101048.97;4154428;28;20056;-71
2023/03/16 04:35:34;;;;;;;16.52;12.18;;;;;;;2.38;72.71;101057.81;4154886;28;20081;-71
2023/03/16 04:37:37;;;;;;;17.15;12.95;;;;;;;2.42;72.30;101044.38;4148133;28;20456;-72
2023/03/16 04:39:40;;;;;;;17.50;13.75;;;;;;;2.45;72.28;101048.78;4147437;28;20034;-71
2023/03/16 04:41:45;;;;;;;21.08;15.23;;;;;;;2.51;72.60;101043.09;4146836;28;20476;-71
2023/03/16 04:43:56;;;;;;;19.85;14.00;;;;;;;2.43;72.27;101040.13;4157531;28;20054;-71
2023/03/16 04:46:00;;;;;;;20.05;14.40;;;;;;;2.40;72.18;101045.06;4158107;28;20041;-70
2023/03/16 04:48:05;;;;;;;19.27;14.80;;;;;;;2.40;72.59;101045.94;4146908;28;20065;-70
2023/03/16 04:50:10;;;;;;;20.88;13.90;;;;;;;2.43;72.98;101041.00;4151369;28;20026;-70
2023/03/16 04:52:14;;;;;;;18.85;13.90;;;;;;;2.41;72.56;101034.91;4156588;28;20064;-70
2023/03/16 04:54:17;;;;;;;19.35;14.25;;;;;;;2.37;72.36;101042.34;4158868;28;20497;-69
2023/03/16 04:56:20;;;;;;;17.70;12.10;;;;;;;2.32;72.96;101036.91;4149807;28;20045;-69
2023/03/16 04:58:30;;;;;;;25.27;16.33;;;;;;;2.31;73.08;101032.63;4150497;28;20048;-71
2023/03/16 05:00:35;;;;;;;17.75;13.25;;;;;;;2.26;73.09;101034.91;4142295;28;20081;-71
2023/03/16 05:02:48;;;;;;;19.98;13.82;;;;;;;2.29;72.79;101034.19;4150427;28;20039;-68
2023/03/16 05:04:51;;;;;;;16.00;9.57;;;;;;;2.36;74.02;101036.31;4141757;28;20057;-69
2023/03/16 05:06:54;;;;;;;16.80;11.15;;;;;;;4.01;81.63;101027.03;4156522;28;20092;-69
2023/03/16 05:09:04;;;;;;;19.60;14.43;;;;;;;4.68;78.22;101030.25;4155756;28;20049;-67
2023/03/16 05:11:10;;;;;;;19.70;13.40;;;;;;;4.48;71.61;101017.34;4153164;28;20052;-67
2023/03/16 05:13:22;;;;;;;19.25;14.40;;;;;;;4.03;70.39;101014.28;4150571;28;20061;-67
2023/03/16 05:15:27;;;;;;;17.98;14.10;;;;;;;3.70;70.33;101016.03;4146416;28;20134;-67
2023/03/16 05:17:35;;;;;;;20.42;14.20;;;;;;;3.36;70.66;101010.03;4143626;28;20441;-67
2023/03/16 05:19:39;;;;;;;21.13;15.00;;;;;;;3.13;71.15;101017.41;4147758;28;20505;-67
2023/03/16 05:21:42;;;;;;;19.48;15.35;;;;;;;3.00;71.36;101020.13;4140609;28;20043;-67
2023/03/16 05:23:45;;;;;;;19.40;14.68;;;;;;;2.90;71.31;101018.75;4132911;28;20454;-68
2023/03/16 05:25:49;;;;;;;23.90;15.43;;;;;;;2.91;71.53;101022.22;4146706;28;20382;-68
2023/03/16 05:27:55;;;;;;;20.23;14.75;;;;;;;2.83;70.92;101023.47;4146024;28;20504;-67
2023/03/16 05:30:19;;;;;;;19.45;14.90;;;;;;;2.71;71.30;101022.00;4149472;28;20161;-67
2023/03/16 05:32:24;;;;;;;22.92;16.20;;;;;;;2.61;71.46;101017.16;4129525;28;20050;-68
2023/03/16 05:34:27;;;;;;;21.45;16.17;;;;;;;2.54;71.40;101012.47;4128713;28;20505;-68
2023/03/16 05:36:30;;;;;;;22.10;15.80;;;;;;;2.52;71.79;101009.81;4156099;28;20128;-68
2023/03/16 05:38:41;;;;;;;21.95;16.48;;;;;;;2.51;72.41;101012.31;4153290;28;20233;-67
2023/03/16 05:40:51;;;;;;;22.60;15.52;;;;;;;2.52;72.35;101008.94;4142602;28;20059;-68
2023/03/16 05:43:09;;;;;;;22.10;16.15;;;;;;;2.54;71.98;101007.34;4146882;28;20115;-68
2023/03/16 05:45:18;;;;;;;19.83;14.93;;;;;;;2.55;72.25;101003.97;4146599;28;20041;-68
2023/03/16 05:47:46;;;;;;;22.35;15.85;;;;;;;2.58;71.78;101009.28;4147069;28;20099;-68
2023/03/16 05:49:48;;;;;;;19.70;15.57;;;;;;;2.65;72.10;101005.38;4129387;28;20070;-68
2023/03/16 05:52:00;;;;;;;17.80;13.35;;;;;;;2.72;71.67;101002.34;4149588;28;20389;-67
2023/03/16 05:54:04;;;;;;;17.77;10.95;;;;;;;2.69;71.67;101007.31;4151410;28;20045;-68
2023/03/16 05:56:15;;;;;;;19.08;14.15;;;;;;;2.67;72.06;100998.63;4148954;28;20049;-68
2023/03/16 05:58:20;;;;;;;18.55;13.07;;;;;;;2.69;71.91;100991.94;4130182;28;20066;-67
2023/03/16 06:00:26;;;;;;;21.88;15.02;;;;;;;2.66;71.83;100994.28;4153000;28;20045;-68
2023/03/16 06:02:40;;;;;;;16.75;12.55;;;;;;;2.64;72.18;100991.66;4157072;28;20033;-68
2023/03/16 06:04:45;;;;;;;18.92;12.02;;;;;;;2.65;71.97;100990.84;4157473;28;20091;-67
2023/03/16 06:06:48;;;;;;;19.98;13.15;;;;;;;2.66;72.23;100992.63;4151602;28;20477;-68
2023/03/16 06:08:55;;;;;;;19.77;15.00;;;;;;;2.64;72.20;101007.06;4148530;28;20134;-68
2023/03/16 06:11:00;;;;;;;19.25;12.23;;;;;;;2.66;72.87;100997.78;4134748;28;20041;-68
2023/03/16 06:13:04;;;;;;;16.13;12.82;;;;;;;2.68;72.91;101001.28;4151915;28;20038;-68
2023/03/16 06:15:09;;;;;;;18.50;12.90;;;;;;;2.67;72.68;100994.38;4137628;28;20045;-68
2023/03/16 06:17:11;;;;;;;18.98;13.38;;;;;;;2.69;73.23;100992.78;4135701;28;20160;-68
2023/03/16 06:19:16;;;;;;;17.80;12.90;;;;;;;2.72;73.28;100994.66;4141887;28;20600;-67
2023/03/16 06:21:23;;;;;;;17.60;12.98;;;;;;;2.75;73.19;100989.69;4159605;28;20072;-67
2023/03/16 06:23:29;;;;;;;18.67;12.68;;;;;;;2.67;73.28;100984.09;4148598;28;20493;-67
2023/03/16 06:25:33;;;;;;;18.77;12.68;;;;;;;2.71;73.46;100991.19;4152051;28;20124;-67
2023/03/16 06:27:38;;;;;;;17.40;12.30;;;;;;;2.77;73.40;100988.97;4144430;28;20124;-68
2023/03/16 06:29:46;;;;;;;17.23;11.50;;;;;;;2.72;72.82;100992.09;4146559;28;20066;-68
2023/03/16 06:31:50;;;;;;;15.82;10.98;;;;;;;2.71;72.71;100993.75;4142323;28;20034;-68
2023/03/16 06:33:53;;;;;;;19.05;12.30;;;;;;;2.77;73.25;100990.63;4146012;28;20496;-67
2023/03/16 06:35:58;;;;;;;;;;;;;;;2.76;73.33;100996.56;4144553;28;20057;-68
2023/03/16 06:38:10;;;;;;;19.25;11.93;;;;;;;2.81;73.00;101001.97;4131420;28;19922;-68
2023/03/16 06:40:42;;;;;;;17.98;11.70;;;;;;;2.90;72.37;101007.59;4145957;28;20045;-68
2023/03/16 06:42:45;;;;;;;17.15;11.77;;;;;;;2.88;72.76;101002.38;4151343;28;20469;-68
2023/03/16 06:44:52;;;;;;;14.13;11.05;;;;;;;2.89;73.02;101001.59;4145555;28;20464;-68
2023/03/16 06:46:55;;;;;;;16.23;12.52;;;;;;;2.98;73.01;101001.19;4149660;28;20050;-68
2023/03/16 06:48:59;;;;;;;18.88;13.52;;;;;;;3.04;72.93;101009.22;4144996;28;20057;-68
2023/03/16 06:51:02;;;;;;;15.52;11.50;;;;;;;3.06;72.37;101005.03;4144862;28;20056;-67
2023/03/16 06:53:06;;;;;;;21.13;14.00;;;;;;;3.09;72.66;101002.63;4144747;28;20060;-68
2023/03/16 06:55:13;;;;;;;20.05;13.13;;;;;;;3.16;72.36;101010.69;4147187;28;20536;-67
2023/03/16 06:57:21;;;;;;;20.05;13.27;;;;;;;3.17;72.65;101007.28;4147738;28;20129;-68
2023/03/16 06:59:25;;;;;;;23.45;12.40;;;;;;;3.22;72.20;101006.75;4144753;28;20157;-67
2023/03/16 07:01:28;;;;;;;17.98;12.88;;;;;;;3.30;72.40;101019.97;4128721;28;20046;-68
2023/03/16 07:03:31;;;;;;;18.15;13.18;;;;;;;3.33;72.50;101015.03;4147440;28;20029;-67
2023/03/16 07:05:40;;;;;;;18.67;13.32;;;;;;;3.36;71.66;101010.03;4147477;28;20044;-68
2023/03/16 07:07:44;;;;;;;18.52;13.88;;;;;;;3.36;72.00;101010.03;4140539;28;20504;-67
2023/03/16 07:09:47;;;;;;;24.20;15.30;;;;;;;3.44;71.91;101010.44;4144659;28;20044;-67
2023/03/16 07:11:51;;;;;;;26.10;16.40;;;;;;;3.45;71.55;101010.50;4152560;28;20042;-67
2023/03/16 07:13:54;;;;;;;26.77;16.45;;;;;;;3.39;71.23;101007.63;4128292;28;20050;-67
2023/03/16 07:15:58;;;;;;;22.45;15.70;;;;;;;3.43;71.87;100999.28;4152236;28;20125;-68
2023/03/16 07:18:01;;;;;;;20.45;14.30;;;;;;;3.47;71.83;100997.75;4144455;28;20641;-68
2023/03/16 07:20:09;;;;;;;16.48;11.82;;;;;;;3.50;71.66;101008.19;4144263;28;20034;-67
2023/03/16 07:22:12;;;;;;;19.08;11.65;;;;;;;3.52;71.32;101003.09;4144220;28;20041;-68
2023/03/16 07:24:16;;;;;;;15.00;11.50;;;;;;;3.56;71.04;101008.47;4140419;28;20042;-67
2023/03/16 07:26:20;;;;;;;15.45;11.90;;;;;;;3.59;71.41;101013.81;4146829;28;20489;-68
2023/03/16 07:28:31;;;;;;;15.90;11.23;;;;;;;3.67;71.07;101011.63;4146292;28;20038;-67
2023/03/16 07:30:35;;;;;;;17.27;11.75;;;;;;;3.72;71.20;101012.72;4127731;28;20493;-67
2023/03/16 07:32:40;;;;;;;15.13;11.43;;;;;;;3.74;70.88;101013.69;4144801;28;20046;-68
2023/03/16 07:34:44;;;;;;;14.48;11.30;;;;;;;3.64;70.44;101008.91;4144271;28;20069;-68
2023/03/16 07:36:48;;;;;;;14.95;10.85;;;;;;;3.71;70.76;101010.06;4139009;28;20594;-68
2023/03/16 07:38:51;;;;;;;17.83;10.82;;;;;;;3.77;71.22;101011.28;4132584;28;20046;-68
2023/03/16 07:40:54;;;;;;;17.02;11.55;;;;;;;3.80;71.14;101014.00;4148305;28;20519;-67
2023/03/16 07:42:58;;;;;;;16.10;10.88;;;;;;;3.86;71.22;101015.13;4144147;28;20042;-67
2023/03/16 07:45:07;;;;;;;15.70;11.50;;;;;;;3.97;70.62;101022.59;4145578;28;20052;-67
2023/03/16 07:47:12;;;;;;;15.52;11.07;;;;;;;4.25;69.97;101018.78;4148664;28;20118;-67
2023/03/16 07:49:16;;;;;;;15.82;12.07;;;;;;;4.24;70.21;101021.28;4145146;28;20424;-68
2023/03/16 07:51:20;;;;;;;14.13;10.20;;;;;;;4.28;70.11;101016.38;4149525;28;20034;-68
2023/03/16 07:53:25;;;;;;;22.52;11.82;;;;;;;4.40;70.08;101017.78;4143885;28;20044;-67
2023/03/16 07:55:41;;;;;;;15.25;11.05;;;;;;;4.44;69.92;101012.84;4144308;28;20440;-67
2023/03/16 07:57:46;;;;;;;17.27;11.30;;;;;;;4.53;69.70;101014.97;4149251;28;20033;-67
2023/03/16 07:59:52;;;;;;;15.80;10.07;;;;;;;4.63;69.52;101016.28;4151415;28;20065;-68
2023/03/16 08:01:57;;;;;;;13.95;10.60;;;;;;;4.74;69.77;101007.38;4148723;28;20112;-67
2023/03/16 08:04:00;;;;;;;14.35;9.93;;;;;;;4.84;68.84;100994.09;4145020;28;20103;-68
2023/03/16 08:06:04;;;;;;;14.05;9.63;;;;;;;4.92;68.71;100979.00;4135804;28;20121;-68
2023/03/16 08:08:08;;;;;;;13.52;9.98;;;;;;;4.99;67.84;100988.75;4143567;28;20620;-67
2023/03/16 08:10:12;;;;;;;14.07;10.18;;;;;;;5.01;67.61;100991.44;4147901;28;20125;-67
2023/03/16 08:12:28;;;;;;;13.95;9.90;;;;;;;5.06;67.66;100987.34;4144753;28;20460;-68
2023/03/16 08:14:33;;;;;;;15.88;9.93;;;;;;;5.09;66.99;100981.47;4144858;28;20041;-68
2023/03/16 08:16:42;;;;;;;10.98;7.88;;;;;;;5.12;67.26;100989.31;4145012;28;20049;-67
2023/03/16 08:18:46;;;;;;;15.88;8.98;;;;;;;5.26;67.06;100985.66;4150188;28;20546;-68
2023/03/16 08:20:50;;;;;;;12.15;9.38;;;;;;;5.47;66.58;100985.72;4144015;28;20413;-68
2023/03/16 08:22:54;;;;;;;14.40;8.90;;;;;;;5.48;66.76;100987.47;4134039;28;20030;-68
2023/03/16 08:25:01;;;;;;;13.43;9.00;;;;;;;5.52;66.32;100989.38;4164689;22;20045;-68
2023/03/16 08:27:04;;;;;;;11.38;8.48;;;;;;;5.64;65.46;100985.56;4158893;28;20038;-68
2023/03/16 08:29:08;;;;;;;13.23;8.23;;;;;;;5.63;64.74;100986.38;4143312;28;20045;-68
2023/03/16 08:31:13;;;;;;;10.07;8.05;;;;;;;5.66;64.92;101002.00;4149822;28;20296;-68
2023/03/16 08:33:25;;;;;;;11.68;7.82;;;;;;;5.68;65.26;100995.19;4166592;28;20105;-68
2023/03/16 08:35:29;;;;;;;12.02;8.30;;;;;;;5.76;65.17;100998.97;4155922;28;20048;-67
2023/03/16 08:37:32;;;;;;;12.80;8.20;;;;;;;5.83;64.89;100994.97;4150000;28;20136;-68
2023/03/16 08:39:35;;;;;;;11.13;8.35;;;;;;;5.94;64.15;100994.59;4158534;28;20128;-68
2023/03/16 08:41:42;;;;;;;10.63;7.65;;;;;;;6.02;63.65;100982.03;4145801;28;20125;-68
2023/03/16 08:43:56;;;;;;;13.05;8.57;;;;;;;6.12;63.47;100983.31;4134431;28;20035;-68
2023/03/16 08:46:00;;;;;;;9.87;7.33;;;;;;;6.22;63.30;100975.13;4161474;28;20030;-68
2023/03/16 08:48:13;;;;;;;10.93;7.65;;;;;;;6.29;63.00;100974.53;4145457;28;20292;-68
2023/03/16 08:50:19;;;;;;;10.63;7.28;;;;;;;6.29;63.19;100969.38;4176731;28;20413;-68
2023/03/16 08:52:24;;;;;;;10.63;7.37;;;;;;;6.29;62.63;100966.78;4158099;28;20038;-68
2023/03/16 08:54:27;;;;;;;9.63;7.07;;;;;;;6.25;62.54;100962.31;4153274;28;20501;-67
2023/03/16 08:56:31;;;;;;;14.52;7.97;;;;;;;6.35;62.11;100955.84;4155914;28;20037;-67
2023/03/16 08:58:34;;;;;;;11.45;6.97;;;;;;;6.41;62.36;100961.22;4156620;28;20073;-68
2023/03/16 09:00:38;;;;;;;9.45;7.00;;;;;;;6.52;62.21;100963.34;4160553;28;20501;-68
2023/03/16 09:02:41;;;;;;;9.35;6.82;;;;;;;6.64;61.60;100967.28;4159610;28;20203;-68
2023/03/16 09:04:44;;;;;;;13.38;7.50;;;;;;;6.67;61.88;100963.91;4155822;28;20041;-68
2023/03/16 09:06:50;;;;;;;9.02;6.65;;;;;;;6.72;62.24;100956.38;4155485;28;20040;-68
2023/03/16 09:09:10;;;;;;;12.50;7.38;;;;;;;6.94;61.11;100948.56;4148361;28;20068;-68
2023/03/16 09:11:16;;;;;;;8.65;6.32;;;;;;;6.95;61.53;100955.53;4156065;28;20057;-68
2023/03/16 09:13:18;;;;;;;10.82;6.97;;;;;;;7.01;61.57;100946.22;4159480;28;20132;-68
2023/03/16 09:15:21;;;;;;;10.40;6.82;;;;;;;7.05;61.44;100945.50;4159278;28;20045;-68
2023/03/16 09:17:24;;;;;;;9.48;5.97;;;;;;;7.13;61.32;100949.25;4161688;28;20496;-69
2023/03/16 09:19:27;;;;;;;9.93;6.47;;;;;;;7.27;60.89;100955.81;4150455;28;20460;-69
2023/03/16 09:21:43;;;;;;;8.77;5.95;;;;;;;7.36;59.95;100962.13;4155245;28;20452;-68
2023/03/16 09:23:49;;;;;;;10.25;6.13;;;;;;;7.38;60.51;100961.34;4153590;28;20072;-68
2023/03/16 09:25:57;;;;;;;8.60;5.75;;;;;;;7.45;59.64;100965.03;4160574;28;20065;-69
2023/03/16 09:28:00;;;;;;;9.82;6.45;;;;;;;7.47;59.41;100966.84;4157050;28;20044;-68
2023/03/16 09:30:04;;;;;;;7.70;5.50;;;;;;;7.61;58.43;100964.75;4156497;28;20104;-68
2023/03/16 09:32:08;;;;;;;8.63;5.75;;;;;;;7.64;57.88;100963.97;4154826;28;20061;-69
2023/03/16 09:34:10;;;;;;;10.80;6.10;;;;;;;7.65;58.29;100958.84;4150135;28;20038;-68
2023/03/16 09:36:14;;;;;;;8.40;6.40;;;;;;;7.67;58.23;100954.59;4156740;28;20516;-69
2023/03/16 09:38:17;;;;;;;9.00;6.35;;;;;;;7.74;58.34;100954.78;4158974;28;20154;-68
2023/03/16 09:40:23;;;;;;;8.43;5.55;;;;;;;7.75;58.68;100951.38;4161108;28;20063;-69
2023/03/16 09:42:35;;;;;;;10.95;6.68;;;;;;;7.78;58.52;100951.47;4158338;28;20038;-69